Casey, Iowa
Current Conditions -  °F | °C
As of 9:55 PM on Thursday 27 Nov 2014 (Local Time) from KADU Reporting Station
Clear Clear  
Wind Chill:   Ceiling: Unl
Heat Index: 18°   Visibility: 10mi
Dew Point: 10°   Wind: 6mph
Humidity: 73%   Direction: 130°SE
Pressure: 30.24"   Gusts: NA
Location:  41.5°N, 94.52°W
Report Text: KADU 280355Z AUTO 13005KT 10SM CLR M08/M12 A3024 RMK AO2
Loading
Personal Weather Stations






























Interactive Weather Map New forecast layout! Learn more

10-Day Weather Forecast

Advertisements
Track Severe Weather on mobile